createdAt,value
2023-04-18T00:02:41.653Z,100609.91
2023-04-18T00:06:45.276Z,100622.34
2023-04-18T00:10:48.372Z,100622.34
2023-04-18T00:14:52.421Z,100618.88
2023-04-18T00:18:57.517Z,100614.47
2023-04-18T00:23:04.081Z,100611.97
2023-04-18T00:27:07.278Z,100613.59
2023-04-18T00:31:10.397Z,100616.19
2023-04-18T00:35:19.351Z,100609.34
2023-04-18T00:39:23.714Z,100615.53
2023-04-18T00:43:28.393Z,100614.66
2023-04-18T00:47:37.079Z,100615.66
2023-04-18T00:51:42.083Z,100608.63
2023-04-18T00:55:45.104Z,100606.94
2023-04-18T00:59:50.966Z,100609.41
2023-04-18T01:03:54.233Z,100613.75
2023-04-18T01:08:01.437Z,100612.13
2023-04-18T01:12:04.762Z,100618.16
2023-04-18T01:16:08.265Z,100610.41
2023-04-18T01:20:12.655Z,100614.75
2023-04-18T01:24:24.737Z,100613.84
2023-04-18T01:28:28.007Z,100605.09
2023-04-18T01:32:31.253Z,100603.44
2023-04-18T01:36:34.877Z,100609.50
2023-04-18T01:40:40.599Z,100604.28
2023-04-18T01:44:44.005Z,100614.75
2023-04-18T01:48:46.875Z,100609.50
2023-04-18T01:52:51.548Z,100606.00
2023-04-18T01:56:56.169Z,100610.34
2023-04-18T02:00:59.359Z,100603.44
2023-04-18T02:05:02.802Z,100607.78
2023-04-18T02:09:05.795Z,100603.38
2023-04-18T02:13:10.166Z,100608.69
2023-04-18T02:17:13.524Z,100602.47
2023-04-18T02:21:16.657Z,100602.31
2023-04-18T02:25:19.773Z,100605.16
2023-04-18T02:29:24.343Z,100597.31
2023-04-18T02:33:27.394Z,100600.03
2023-04-18T02:37:30.781Z,100592.16
2023-04-18T02:41:35.260Z,100593.06
2023-04-18T02:45:39.864Z,100601.97
2023-04-18T02:49:45.987Z,100597.56
2023-04-18T02:53:55.137Z,100590.53
2023-04-18T02:57:58.789Z,100598.41
2023-04-18T03:02:04.888Z,100598.47
2023-04-18T03:06:08.156Z,100602.81
2023-04-18T03:10:12.132Z,100595.78
2023-04-18T03:14:15.482Z,100603.69
2023-04-18T03:18:20.389Z,100611.56
2023-04-18T03:22:23.460Z,100603.59
2023-04-18T03:26:27.069Z,100607.06
2023-04-18T03:30:30.757Z,100620.16
2023-04-18T03:34:35.180Z,100609.56
2023-04-18T03:38:41.147Z,100618.25
2023-04-18T03:42:46.677Z,100623.22
2023-04-18T03:46:49.708Z,100623.22
2023-04-18T03:50:54.289Z,100623.16
2023-04-18T03:54:57.206Z,100625.69
2023-04-18T03:59:00.362Z,100629.13
2023-04-18T04:03:03.165Z,100629.81
2023-04-18T04:07:07.936Z,100629.63
2023-04-18T04:11:11.062Z,100630.44
2023-04-18T04:15:14.663Z,100631.31
2023-04-18T04:19:17.377Z,100629.47
2023-04-18T04:23:22.911Z,100631.94
2023-04-18T04:27:27.230Z,100633.50
2023-04-18T04:31:36.952Z,100636.00
2023-04-18T04:35:40.279Z,100641.09
2023-04-18T04:39:44.845Z,100637.50
2023-04-18T04:43:48.063Z,100645.25
2023-04-18T04:47:54.086Z,100653.00
2023-04-18T04:51:57.242Z,100643.16
2023-04-18T04:56:01.871Z,100647.41
2023-04-18T05:00:07.940Z,100650.75
2023-04-18T05:04:11.101Z,100651.63
2023-04-18T05:08:16.613Z,100654.25
2023-04-18T05:12:23.976Z,100659.28
2023-04-18T05:16:30.036Z,100660.00
2023-04-18T05:20:33.136Z,100654.53
2023-04-18T05:24:35.857Z,100665.69
2023-04-18T05:28:41.656Z,100663.59
2023-04-18T05:32:45.044Z,100664.69
2023-04-18T05:36:48.835Z,100656.22
2023-04-18T05:40:52.408Z,100658.09
2023-04-18T05:44:57.382Z,100659.31
2023-04-18T05:49:00.235Z,100659.63
2023-04-18T05:53:03.315Z,100661.81
2023-04-18T05:57:08.005Z,100658.28
2023-04-18T06:01:13.114Z,100665.38
2023-04-18T06:05:16.705Z,100666.38
2023-04-18T06:09:19.772Z,100672.63
2023-04-18T06:13:22.867Z,100666.09
2023-04-18T06:17:26.977Z,100665.31
2023-04-18T06:21:32.831Z,100661.84
2023-04-18T06:25:37.836Z,100662.81
2023-04-18T06:29:40.472Z,100676.66
2023-04-18T06:33:44.832Z,100679.41
2023-04-18T06:37:48.513Z,100681.44
2023-04-18T06:41:54.241Z,100689.25
2023-04-18T06:45:57.881Z,100680.56
2023-04-18T06:50:02.396Z,100684.34
2023-04-18T06:54:12.568Z,100684.34
2023-04-18T06:58:17.097Z,100682.81
2023-04-18T07:02:20.164Z,100684.31
2023-04-18T07:06:24.563Z,100687.19
2023-04-18T07:10:27.531Z,100672.41
2023-04-18T07:14:32.262Z,100684.56
2023-04-18T07:18:38.566Z,100689.22
2023-04-18T07:22:43.691Z,100687.44
2023-04-18T07:26:46.578Z,100693.63
2023-04-18T07:30:50.532Z,100691.03
2023-04-18T07:34:53.997Z,100692.50
2023-04-18T07:38:58.966Z,100698.41
2023-04-18T07:43:01.897Z,100695.69
2023-04-18T07:47:10.301Z,100703.81
2023-04-18T07:51:13.680Z,100701.28
2023-04-18T07:55:19.773Z,100703.53
2023-04-18T07:59:22.680Z,100698.69
2023-04-18T08:03:25.422Z,100715.44
2023-04-18T08:07:28.766Z,100715.72
2023-04-18T08:11:34.984Z,100711.00
2023-04-18T08:15:38.002Z,100709.03
2023-04-18T08:19:40.526Z,100709.38
2023-04-18T08:23:43.730Z,100715.25
2023-04-18T08:27:48.042Z,100720.94
2023-04-18T08:31:51.347Z,100719.25
2023-04-18T08:35:54.479Z,100711.94
2023-04-18T08:39:57.715Z,100713.78
2023-04-18T08:44:02.489Z,100707.53
2023-04-18T08:48:08.318Z,100714.22
2023-04-18T08:52:14.512Z,100701.31
2023-04-18T08:56:17.689Z,100717.69
2023-04-18T09:00:23.939Z,100703.63
2023-04-18T09:04:45.588Z,100699.06
2023-04-18T09:09:00.504Z,100705.75
2023-04-18T09:13:04.526Z,100698.28
2023-04-18T09:17:08.926Z,100702.34
2023-04-18T09:21:20.107Z,100689.50
2023-04-18T09:25:27.729Z,100695.50
2023-04-18T09:29:46.999Z,100686.56
2023-04-18T09:33:57.093Z,100687.41
2023-04-18T09:38:00.373Z,100686.41
2023-04-18T09:42:03.911Z,100695.78
2023-04-18T09:46:09.951Z,100697.94
2023-04-18T09:50:18.742Z,100691.16
2023-04-18T09:54:24.238Z,100691.75
2023-04-18T09:58:34.335Z,100683.84
2023-04-18T10:02:51.684Z,100682.75
2023-04-18T10:06:58.905Z,100680.38
2023-04-18T10:11:04.884Z,100679.88
2023-04-18T10:15:10.620Z,100682.25
2023-04-18T10:19:27.420Z,100676.78
2023-04-18T10:23:39.313Z,100677.41
2023-04-18T10:27:57.630Z,100670.31
2023-04-18T10:32:07.384Z,100666.13
2023-04-18T10:36:22.543Z,100655.31
2023-04-18T10:40:35.667Z,100655.00
2023-04-18T10:44:38.981Z,100643.00
2023-04-18T10:48:41.967Z,100647.31
2023-04-18T10:52:45.019Z,100638.81
2023-04-18T10:56:57.092Z,100640.56
2023-04-18T11:01:01.099Z,100640.59
2023-04-18T11:05:08.137Z,100632.47
2023-04-18T11:09:11.847Z,100628.53
2023-04-18T11:13:16.422Z,100623.44
2023-04-18T11:17:24.050Z,100618.84
2023-04-18T11:21:30.723Z,100626.72
2023-04-18T11:25:36.680Z,100614.50
2023-04-18T11:29:41.333Z,100621.94
2023-04-18T11:33:46.590Z,100623.59
2023-04-18T11:37:51.632Z,100609.00
2023-04-18T11:41:57.328Z,100615.50
2023-04-18T11:46:02.145Z,100608.69
2023-04-18T11:50:07.393Z,100611.63
2023-04-18T11:54:37.289Z,100614.41
2023-04-18T11:58:41.099Z,100605.31
2023-04-18T12:02:48.277Z,100594.41
2023-04-18T12:06:52.847Z,100597.44
2023-04-18T12:10:56.763Z,100594.19
2023-04-18T12:15:01.798Z,100590.78
2023-04-18T12:19:11.648Z,100584.84
2023-04-18T12:23:35.785Z,100582.94
2023-04-18T12:28:05.212Z,100579.03
2023-04-18T12:32:08.006Z,100589.31
2023-04-18T12:36:12.602Z,100577.19
2023-04-18T12:40:16.276Z,100572.81
2023-04-18T12:44:19.240Z,100578.81
2023-04-18T12:48:21.544Z,100572.50
2023-04-18T12:52:27.092Z,100565.84
2023-04-18T12:56:29.945Z,100571.16
2023-04-18T13:00:33.757Z,100572.22
2023-04-18T13:04:36.964Z,100559.44
2023-04-18T13:08:42.816Z,100566.72
2023-04-18T13:12:47.959Z,100567.56
2023-04-18T13:16:51.501Z,100557.53
2023-04-18T13:20:54.638Z,100554.34
2023-04-18T13:24:59.162Z,100554.72
2023-04-18T13:29:02.094Z,100560.03
2023-04-18T13:33:06.829Z,100546.44
2023-04-18T13:37:10.012Z,100541.75
2023-04-18T13:41:14.248Z,100542.22
2023-04-18T13:45:20.874Z,100535.47
2023-04-18T13:49:23.874Z,100542.78
2023-04-18T13:53:27.928Z,100534.50
2023-04-18T13:57:37.549Z,100536.25
2023-04-18T14:01:40.425Z,100532.72
2023-04-18T14:05:43.581Z,100522.13
2023-04-18T14:09:53.747Z,100525.22
2023-04-18T14:13:58.345Z,100515.97
2023-04-18T14:18:07.130Z,100517.88
2023-04-18T14:22:10.202Z,100520.19
2023-04-18T14:26:13.321Z,100512.81
2023-04-18T14:30:18.387Z,100517.81
2023-04-18T14:34:21.391Z,100508.38
2023-04-18T14:38:23.991Z,100510.81
2023-04-18T14:42:30.448Z,100513.25
2023-04-18T14:46:35.027Z,100511.19
2023-04-18T14:50:41.053Z,100495.47
2023-04-18T14:54:45.116Z,100505.03
2023-04-18T14:58:48.279Z,100496.56
2023-04-18T15:02:52.755Z,100504.69
2023-04-18T15:06:56.452Z,100493.09
2023-04-18T15:10:59.388Z,100495.03
2023-04-18T15:15:02.215Z,100493.25
2023-04-18T15:19:10.102Z,100495.06
2023-04-18T15:23:15.640Z,100488.31
2023-04-18T15:27:18.724Z,100487.06
2023-04-18T15:31:23.794Z,100492.19
2023-04-18T15:35:28.186Z,100488.78
2023-04-18T15:39:30.998Z,100487.66
2023-04-18T15:43:33.986Z,100481.38
2023-04-18T15:47:37.399Z,100488.84
2023-04-18T15:51:41.774Z,100484.22
2023-04-18T15:55:46.845Z,100485.78
2023-04-18T15:59:51.033Z,100471.75
2023-04-18T16:03:53.804Z,100474.59
2023-04-18T16:07:59.653Z,100483.41
2023-04-18T16:12:04.646Z,100475.41
2023-04-18T16:16:08.024Z,100475.25
2023-04-18T16:20:11.455Z,100478.16
2023-04-18T16:24:16.673Z,100469.72
2023-04-18T16:28:19.612Z,100466.44
2023-04-18T16:32:23.109Z,100462.53
2023-04-18T16:36:26.207Z,100474.25
2023-04-18T16:40:31.672Z,100461.53
2023-04-18T16:44:34.795Z,100467.63
2023-04-18T16:48:40.979Z,100465.84
2023-04-18T16:52:43.850Z,100463.81
2023-04-18T16:56:48.514Z,100456.63
2023-04-18T17:00:52.749Z,100458.25
2023-04-18T17:04:56.657Z,100460.81
2023-04-18T17:09:00.197Z,100468.38
2023-04-18T17:13:05.285Z,100462.63
2023-04-18T17:17:08.530Z,100469.63
2023-04-18T17:21:12.720Z,100462.44
2023-04-18T17:25:17.735Z,100462.22
2023-04-18T17:29:24.259Z,100463.81
2023-04-18T17:33:30.035Z,100465.16
2023-04-18T17:37:33.573Z,100464.75
2023-04-18T17:41:39.110Z,100455.72
2023-04-18T17:45:44.336Z,100460.91
2023-04-18T17:49:47.080Z,100461.69
2023-04-18T17:53:50.303Z,100459.84
2023-04-18T17:57:53.664Z,100459.91
2023-04-18T18:01:58.883Z,100455.72
2023-04-18T18:06:04.445Z,100464.53
2023-04-18T18:10:08.887Z,100466.94
2023-04-18T18:14:11.684Z,100463.91
2023-04-18T18:18:16.304Z,100459.19
2023-04-18T18:22:21.419Z,100458.81
2023-04-18T18:26:26.652Z,100452.13
2023-04-18T18:30:30.250Z,100451.56
2023-04-18T18:34:34.365Z,100458.63
2023-04-18T18:38:38.070Z,100451.84
2023-04-18T18:42:45.528Z,100444.22
2023-04-18T18:46:48.883Z,100450.72
2023-04-18T18:50:53.491Z,100440.63
2023-04-18T18:54:57.209Z,100442.53
2023-04-18T18:59:02.044Z,100438.19
2023-04-18T19:03:05.837Z,100438.09
2023-04-18T19:07:10.140Z,100425.53
2023-04-18T19:11:13.065Z,100426.47
2023-04-18T19:15:16.528Z,100423.34
2023-04-18T19:19:19.489Z,100423.34
2023-04-18T19:23:25.534Z,100418.91
2023-04-18T19:27:31.396Z,100417.19
2023-04-18T19:31:34.381Z,100417.97
2023-04-18T19:35:42.471Z,100409.91
2023-04-18T19:39:49.325Z,100406.41
2023-04-18T19:43:52.344Z,100407.59
2023-04-18T19:47:55.700Z,100396.44
2023-04-18T19:52:01.479Z,100403.72
2023-04-18T19:56:06.220Z,100398.03
2023-04-18T20:00:10.829Z,100394.53
2023-04-18T20:04:13.770Z,100393.69
2023-04-18T20:08:16.992Z,100396.25
2023-04-18T20:12:21.804Z,100392.47
2023-04-18T20:16:24.904Z,100385.94
2023-04-18T20:20:29.042Z,100383.31
2023-04-18T20:24:32.663Z,100374.59
2023-04-18T20:28:38.211Z,100369.72
2023-04-18T20:32:41.680Z,100372.38
2023-04-18T20:36:46.857Z,100381.44
2023-04-18T20:40:53.015Z,100368.22
2023-04-18T20:44:59.174Z,100365.28
2023-04-18T20:49:02.295Z,100360.00
2023-04-18T20:53:07.520Z,100359.63
2023-04-18T20:57:13.991Z,100361.50
2023-04-18T21:01:18.788Z,100348.50
2023-04-18T21:05:22.300Z,100337.91
2023-04-18T21:09:25.336Z,100343.28
2023-04-18T21:13:27.963Z,100338.22
2023-04-18T21:17:32.460Z,100338.59
2023-04-18T21:21:35.728Z,100333.16
2023-04-18T21:25:40.770Z,100332.84
2023-04-18T21:29:43.783Z,100330.53
2023-04-18T21:33:48.126Z,100327.28
2023-04-18T21:37:50.960Z,100318.91
2023-04-18T21:41:54.599Z,100312.38
2023-04-18T21:45:58.282Z,100316.91
2023-04-18T21:50:03.132Z,100314.09
2023-04-18T21:54:09.414Z,100317.28
2023-04-18T21:58:13.572Z,100309.56
2023-04-18T22:02:16.758Z,100306.66
2023-04-18T22:06:23.348Z,100303.31
2023-04-18T22:10:26.552Z,100301.06
2023-04-18T22:14:33.834Z,100297.94
2023-04-18T22:18:37.850Z,100293.78
2023-04-18T22:22:42.781Z,100296.44
2023-04-18T22:26:47.706Z,100289.44
2023-04-18T22:30:50.834Z,100285.28
2023-04-18T22:34:53.891Z,100286.41
2023-04-18T22:39:00.974Z,100271.81
2023-04-18T22:43:05.578Z,100267.66
2023-04-18T22:47:08.676Z,100270.69
2023-04-18T22:51:13.169Z,100261.31
2023-04-18T22:55:17.616Z,100254.72
2023-04-18T22:59:20.579Z,100255.56
2023-04-18T23:03:23.586Z,100255.00
2023-04-18T23:07:26.811Z,100241.13
2023-04-18T23:11:33.725Z,100243.03
2023-04-18T23:15:39.095Z,100235.13
2023-04-18T23:19:42.755Z,100230.13
2023-04-18T23:23:47.434Z,100231.91
2023-04-18T23:27:51.894Z,100218.13
2023-04-18T23:31:54.772Z,100215.59
2023-04-18T23:35:57.806Z,100216.59
2023-04-18T23:40:01.359Z,100210.78
2023-04-18T23:44:06.285Z,100201.63
2023-04-18T23:48:09.152Z,100203.59
2023-04-18T23:52:11.768Z,100211.09
2023-04-18T23:56:14.788Z,100208.63
